sensor_id;sensor_type;location;lat;lon;timestamp;P1;durP1;ratioP1;P2;durP2;ratioP2
27333;SDS011;14817;57.104;-2.094;2023-03-13T00:01:30;14.88;;;4.90;;
27333;SDS011;14817;57.104;-2.094;2023-03-13T00:04:00;13.82;;;5.03;;
27333;SDS011;14817;57.104;-2.094;2023-03-13T00:06:29;12.55;;;4.97;;
27333;SDS011;14817;57.104;-2.094;2023-03-13T00:08:58;6.80;;;3.85;;
27333;SDS011;14817;57.104;-2.094;2023-03-13T00:11:26;7.10;;;4.30;;
27333;SDS011;14817;57.104;-2.094;2023-03-13T00:13:54;7.43;;;4.25;;
27333;SDS011;14817;57.104;-2.094;2023-03-13T00:16:22;9.57;;;5.20;;
27333;SDS011;14817;57.104;-2.094;2023-03-13T00:18:50;9.85;;;4.72;;
27333;SDS011;14817;57.104;-2.094;2023-03-13T00:21:19;31.85;;;6.32;;
27333;SDS011;14817;57.104;-2.094;2023-03-13T00:23:47;17.45;;;5.18;;
27333;SDS011;14817;57.104;-2.094;2023-03-13T00:26:16;14.65;;;5.25;;
27333;SDS011;14817;57.104;-2.094;2023-03-13T00:28:44;15.95;;;5.38;;
27333;SDS011;14817;57.104;-2.094;2023-03-13T00:31:22;27.85;;;6.57;;
27333;SDS011;14817;57.104;-2.094;2023-03-13T00:33:52;12.18;;;5.25;;
27333;SDS011;14817;57.104;-2.094;2023-03-13T00:36:22;23.75;;;5.35;;
27333;SDS011;14817;57.104;-2.094;2023-03-13T00:38:54;23.70;;;5.93;;
27333;SDS011;14817;57.104;-2.094;2023-03-13T00:41:22;28.30;;;6.93;;
27333;SDS011;14817;57.104;-2.094;2023-03-13T00:43:53;58.53;;;7.90;;
27333;SDS011;14817;57.104;-2.094;2023-03-13T00:46:22;79.85;;;9.50;;
27333;SDS011;14817;57.104;-2.094;2023-03-13T00:48:51;52.90;;;7.22;;
27333;SDS011;14817;57.104;-2.094;2023-03-13T00:51:19;33.70;;;6.10;;
27333;SDS011;14817;57.104;-2.094;2023-03-13T00:53:47;37.47;;;5.63;;
27333;SDS011;14817;57.104;-2.094;2023-03-13T00:56:15;31.50;;;5.30;;
27333;SDS011;14817;57.104;-2.094;2023-03-13T00:58:44;31.63;;;4.63;;
27333;SDS011;14817;57.104;-2.094;2023-03-13T01:01:13;42.97;;;6.25;;
27333;SDS011;14817;57.104;-2.094;2023-03-13T01:03:41;29.65;;;5.15;;
27333;SDS011;14817;57.104;-2.094;2023-03-13T01:06:11;29.88;;;5.57;;
27333;SDS011;14817;57.104;-2.094;2023-03-13T01:08:40;40.65;;;7.35;;
27333;SDS011;14817;57.104;-2.094;2023-03-13T01:11:08;15.63;;;6.85;;
27333;SDS011;14817;57.104;-2.094;2023-03-13T01:13:37;8.13;;;4.47;;
27333;SDS011;14817;57.104;-2.094;2023-03-13T01:16:05;11.07;;;5.03;;
27333;SDS011;14817;57.104;-2.094;2023-03-13T01:18:37;20.55;;;7.68;;
27333;SDS011;14817;57.104;-2.094;2023-03-13T01:21:05;11.50;;;6.63;;
27333;SDS011;14817;57.104;-2.094;2023-03-13T01:23:32;10.95;;;6.78;;
27333;SDS011;14817;57.104;-2.094;2023-03-13T01:25:59;26.20;;;9.70;;
27333;SDS011;14817;57.104;-2.094;2023-03-13T01:28:26;17.60;;;10.70;;
27333;SDS011;14817;57.104;-2.094;2023-03-13T01:30:53;18.48;;;9.75;;
27333;SDS011;14817;57.104;-2.094;2023-03-13T01:33:20;16.42;;;9.63;;
27333;SDS011;14817;57.104;-2.094;2023-03-13T01:35:47;13.25;;;7.93;;
27333;SDS011;14817;57.104;-2.094;2023-03-13T01:38:14;12.30;;;8.27;;
27333;SDS011;14817;57.104;-2.094;2023-03-13T01:40:41;11.80;;;8.68;;
27333;SDS011;14817;57.104;-2.094;2023-03-13T01:43:23;12.68;;;8.35;;
27333;SDS011;14817;57.104;-2.094;2023-03-13T01:46:07;11.43;;;7.45;;
27333;SDS011;14817;57.104;-2.094;2023-03-13T01:51:52;7.75;;;5.35;;
27333;SDS011;14817;57.104;-2.094;2023-03-13T01:54:37;8.32;;;5.15;;
27333;SDS011;14817;57.104;-2.094;2023-03-13T01:57:46;6.53;;;4.82;;
27333;SDS011;14817;57.104;-2.094;2023-03-13T02:00:21;7.20;;;5.60;;
27333;SDS011;14817;57.104;-2.094;2023-03-13T02:02:51;8.07;;;5.87;;
27333;SDS011;14817;57.104;-2.094;2023-03-13T02:05:21;7.20;;;5.30;;
27333;SDS011;14817;57.104;-2.094;2023-03-13T02:07:56;6.95;;;4.45;;
27333;SDS011;14817;57.104;-2.094;2023-03-13T02:10:38;13.50;;;8.13;;
27333;SDS011;14817;57.104;-2.094;2023-03-13T02:13:14;29.30;;;11.65;;
27333;SDS011;14817;57.104;-2.094;2023-03-13T02:15:42;20.42;;;9.10;;
27333;SDS011;14817;57.104;-2.094;2023-03-13T02:18:10;18.10;;;11.20;;
27333;SDS011;14817;57.104;-2.094;2023-03-13T02:20:37;16.60;;;10.35;;
27333;SDS011;14817;57.104;-2.094;2023-03-13T02:28:19;28.73;;;11.80;;
27333;SDS011;14817;57.104;-2.094;2023-03-13T02:30:50;25.27;;;12.40;;
27333;SDS011;14817;57.104;-2.094;2023-03-13T02:33:19;25.52;;;12.60;;
27333;SDS011;14817;57.104;-2.094;2023-03-13T02:35:48;29.70;;;12.88;;
27333;SDS011;14817;57.104;-2.094;2023-03-13T02:38:19;20.15;;;11.05;;
27333;SDS011;14817;57.104;-2.094;2023-03-13T02:40:51;19.73;;;9.95;;
27333;SDS011;14817;57.104;-2.094;2023-03-13T02:43:20;23.55;;;10.40;;
27333;SDS011;14817;57.104;-2.094;2023-03-13T02:48:31;33.97;;;10.07;;
27333;SDS011;14817;57.104;-2.094;2023-03-13T02:51:02;26.58;;;8.82;;
27333;SDS011;14817;57.104;-2.094;2023-03-13T02:53:31;26.60;;;8.57;;
27333;SDS011;14817;57.104;-2.094;2023-03-13T02:56:00;23.98;;;7.43;;
27333;SDS011;14817;57.104;-2.094;2023-03-13T02:58:34;20.63;;;6.63;;
27333;SDS011;14817;57.104;-2.094;2023-03-13T03:01:15;20.23;;;6.90;;
27333;SDS011;14817;57.104;-2.094;2023-03-13T03:03:44;32.40;;;7.00;;
27333;SDS011;14817;57.104;-2.094;2023-03-13T03:06:11;50.13;;;8.48;;
27333;SDS011;14817;57.104;-2.094;2023-03-13T03:08:38;19.60;;;7.53;;
27333;SDS011;14817;57.104;-2.094;2023-03-13T03:11:09;36.13;;;8.47;;
27333;SDS011;14817;57.104;-2.094;2023-03-13T03:13:36;15.70;;;6.72;;
27333;SDS011;14817;57.104;-2.094;2023-03-13T03:16:10;23.40;;;7.30;;
27333;SDS011;14817;57.104;-2.094;2023-03-13T03:18:40;28.75;;;8.43;;
27333;SDS011;14817;57.104;-2.094;2023-03-13T03:21:07;20.20;;;7.22;;
27333;SDS011;14817;57.104;-2.094;2023-03-13T03:23:37;25.75;;;7.55;;
27333;SDS011;14817;57.104;-2.094;2023-03-13T03:26:04;18.45;;;6.18;;
27333;SDS011;14817;57.104;-2.094;2023-03-13T03:28:32;15.63;;;6.40;;
27333;SDS011;14817;57.104;-2.094;2023-03-13T03:31:04;16.20;;;5.50;;
27333;SDS011;14817;57.104;-2.094;2023-03-13T03:33:36;37.45;;;7.20;;
27333;SDS011;14817;57.104;-2.094;2023-03-13T03:36:09;8.13;;;4.43;;
27333;SDS011;14817;57.104;-2.094;2023-03-13T03:38:41;7.88;;;4.00;;
27333;SDS011;14817;57.104;-2.094;2023-03-13T03:41:11;11.82;;;3.55;;
27333;SDS011;14817;57.104;-2.094;2023-03-13T03:43:39;7.68;;;3.60;;
27333;SDS011;14817;57.104;-2.094;2023-03-13T03:46:08;11.45;;;3.40;;
27333;SDS011;14817;57.104;-2.094;2023-03-13T03:48:36;14.85;;;4.20;;
27333;SDS011;14817;57.104;-2.094;2023-03-13T03:51:05;8.00;;;3.67;;
27333;SDS011;14817;57.104;-2.094;2023-03-13T03:53:36;13.70;;;2.92;;
27333;SDS011;14817;57.104;-2.094;2023-03-13T03:56:02;10.60;;;3.22;;
27333;SDS011;14817;57.104;-2.094;2023-03-13T03:58:30;17.45;;;3.70;;
27333;SDS011;14817;57.104;-2.094;2023-03-13T04:01:17;5.78;;;3.15;;
27333;SDS011;14817;57.104;-2.094;2023-03-13T04:03:43;7.55;;;2.10;;
27333;SDS011;14817;57.104;-2.094;2023-03-13T04:06:12;35.88;;;5.22;;
27333;SDS011;14817;57.104;-2.094;2023-03-13T04:08:39;29.65;;;4.38;;
27333;SDS011;14817;57.104;-2.094;2023-03-13T04:11:08;80.85;;;8.68;;
27333;SDS011;14817;57.104;-2.094;2023-03-13T04:13:39;74.03;;;6.47;;
27333;SDS011;14817;57.104;-2.094;2023-03-13T04:16:06;68.70;;;6.57;;
27333;SDS011;14817;57.104;-2.094;2023-03-13T04:18:34;67.25;;;6.65;;
27333;SDS011;14817;57.104;-2.094;2023-03-13T04:21:03;46.38;;;4.43;;
27333;SDS011;14817;57.104;-2.094;2023-03-13T04:23:54;61.63;;;5.53;;
27333;SDS011;14817;57.104;-2.094;2023-03-13T04:26:21;24.55;;;3.72;;
27333;SDS011;14817;57.104;-2.094;2023-03-13T04:28:51;21.77;;;2.83;;
27333;SDS011;14817;57.104;-2.094;2023-03-13T04:31:28;50.17;;;4.60;;
27333;SDS011;14817;57.104;-2.094;2023-03-13T04:34:25;47.60;;;6.03;;
27333;SDS011;14817;57.104;-2.094;2023-03-13T04:37:12;80.97;;;8.57;;
27333;SDS011;14817;57.104;-2.094;2023-03-13T04:39:57;35.85;;;4.30;;
27333;SDS011;14817;57.104;-2.094;2023-03-13T04:42:45;37.78;;;3.90;;
27333;SDS011;14817;57.104;-2.094;2023-03-13T04:45:38;58.65;;;5.95;;
27333;SDS011;14817;57.104;-2.094;2023-03-13T04:48:22;43.30;;;4.07;;
27333;SDS011;14817;57.104;-2.094;2023-03-13T04:50:59;53.92;;;4.75;;
27333;SDS011;14817;57.104;-2.094;2023-03-13T04:53:36;69.88;;;8.45;;
27333;SDS011;14817;57.104;-2.094;2023-03-13T04:56:20;62.15;;;5.72;;
27333;SDS011;14817;57.104;-2.094;2023-03-13T04:59:26;26.30;;;2.60;;
27333;SDS011;14817;57.104;-2.094;2023-03-13T05:02:15;35.78;;;3.78;;
27333;SDS011;14817;57.104;-2.094;2023-03-13T05:05:20;28.40;;;3.08;;
27333;SDS011;14817;57.104;-2.094;2023-03-13T05:08:22;18.13;;;1.83;;
27333;SDS011;14817;57.104;-2.094;2023-03-13T05:11:02;33.95;;;4.05;;
27333;SDS011;14817;57.104;-2.094;2023-03-13T05:13:58;28.92;;;2.95;;
27333;SDS011;14817;57.104;-2.094;2023-03-13T05:16:34;19.38;;;2.85;;
27333;SDS011;14817;57.104;-2.094;2023-03-13T05:19:39;11.38;;;1.73;;
27333;SDS011;14817;57.104;-2.094;2023-03-13T05:22:21;39.55;;;2.90;;
27333;SDS011;14817;57.104;-2.094;2023-03-13T05:25:08;25.90;;;2.83;;
27333;SDS011;14817;57.104;-2.094;2023-03-13T05:27:54;47.65;;;3.60;;
27333;SDS011;14817;57.104;-2.094;2023-03-13T05:30:30;91.15;;;6.65;;
27333;SDS011;14817;57.104;-2.094;2023-03-13T05:33:19;71.35;;;5.78;;
27333;SDS011;14817;57.104;-2.094;2023-03-13T05:36:04;36.80;;;3.38;;
27333;SDS011;14817;57.104;-2.094;2023-03-13T05:38:31;15.43;;;2.10;;
27333;SDS011;14817;57.104;-2.094;2023-03-13T05:41:10;19.45;;;2.67;;
27333;SDS011;14817;57.104;-2.094;2023-03-13T05:44:00;13.73;;;2.17;;
27333;SDS011;14817;57.104;-2.094;2023-03-13T05:46:49;22.63;;;2.38;;
27333;SDS011;14817;57.104;-2.094;2023-03-13T05:49:31;23.05;;;2.83;;
27333;SDS011;14817;57.104;-2.094;2023-03-13T05:52:06;15.98;;;2.75;;
27333;SDS011;14817;57.104;-2.094;2023-03-13T05:54:59;16.05;;;2.30;;
27333;SDS011;14817;57.104;-2.094;2023-03-13T05:57:38;5.85;;;1.55;;
27333;SDS011;14817;57.104;-2.094;2023-03-13T06:00:23;8.65;;;1.25;;
27333;SDS011;14817;57.104;-2.094;2023-03-13T06:03:08;24.70;;;2.40;;
27333;SDS011;14817;57.104;-2.094;2023-03-13T06:05:40;2.25;;;1.45;;
27333;SDS011;14817;57.104;-2.094;2023-03-13T06:08:20;0.88;;;0.82;;
27333;SDS011;14817;57.104;-2.094;2023-03-13T06:10:48;5.47;;;1.63;;
27333;SDS011;14817;57.104;-2.094;2023-03-13T06:13:15;1.23;;;1.05;;
27333;SDS011;14817;57.104;-2.094;2023-03-13T06:15:52;1.00;;;0.90;;
27333;SDS011;14817;57.104;-2.094;2023-03-13T06:18:39;2.20;;;1.40;;
27333;SDS011;14817;57.104;-2.094;2023-03-13T06:21:06;1.33;;;0.70;;
27333;SDS011;14817;57.104;-2.094;2023-03-13T06:23:33;1.95;;;0.98;;
27333;SDS011;14817;57.104;-2.094;2023-03-13T06:26:00;17.27;;;1.90;;
27333;SDS011;14817;57.104;-2.094;2023-03-13T06:28:27;44.38;;;3.83;;
27333;SDS011;14817;57.104;-2.094;2023-03-13T06:30:54;48.88;;;4.30;;
27333;SDS011;14817;57.104;-2.094;2023-03-13T06:33:26;2.67;;;1.00;;
27333;SDS011;14817;57.104;-2.094;2023-03-13T06:35:53;1.38;;;1.23;;
27333;SDS011;14817;57.104;-2.094;2023-03-13T06:38:23;3.05;;;1.45;;
27333;SDS011;14817;57.104;-2.094;2023-03-13T06:40:50;1.70;;;1.30;;
27333;SDS011;14817;57.104;-2.094;2023-03-13T06:43:17;3.08;;;1.48;;
27333;SDS011;14817;57.104;-2.094;2023-03-13T06:45:44;4.60;;;1.40;;
27333;SDS011;14817;57.104;-2.094;2023-03-13T06:48:11;8.95;;;1.38;;
27333;SDS011;14817;57.104;-2.094;2023-03-13T06:50:39;3.20;;;1.25;;
27333;SDS011;14817;57.104;-2.094;2023-03-13T06:53:06;3.45;;;1.38;;
27333;SDS011;14817;57.104;-2.094;2023-03-13T06:55:33;3.03;;;1.67;;
27333;SDS011;14817;57.104;-2.094;2023-03-13T06:58:02;3.22;;;1.15;;
27333;SDS011;14817;57.104;-2.094;2023-03-13T07:00:29;1.45;;;1.30;;
27333;SDS011;14817;57.104;-2.094;2023-03-13T07:02:57;2.00;;;1.23;;
27333;SDS011;14817;57.104;-2.094;2023-03-13T07:05:24;2.50;;;1.70;;
27333;SDS011;14817;57.104;-2.094;2023-03-13T07:07:51;1.60;;;1.20;;
27333;SDS011;14817;57.104;-2.094;2023-03-13T07:10:18;3.83;;;1.77;;
27333;SDS011;14817;57.104;-2.094;2023-03-13T07:12:45;1.98;;;1.77;;
27333;SDS011;14817;57.104;-2.094;2023-03-13T07:15:11;2.28;;;1.63;;
27333;SDS011;14817;57.104;-2.094;2023-03-13T07:17:38;1.15;;;1.05;;
27333;SDS011;14817;57.104;-2.094;2023-03-13T07:20:05;2.65;;;1.80;;
27333;SDS011;14817;57.104;-2.094;2023-03-13T07:22:35;1.10;;;0.90;;
27333;SDS011;14817;57.104;-2.094;2023-03-13T07:25:03;2.00;;;0.80;;
27333;SDS011;14817;57.104;-2.094;2023-03-13T07:27:31;3.13;;;0.70;;
27333;SDS011;14817;57.104;-2.094;2023-03-13T07:29:58;6.00;;;0.88;;
27333;SDS011;14817;57.104;-2.094;2023-03-13T07:32:25;5.07;;;0.90;;
27333;SDS011;14817;57.104;-2.094;2023-03-13T07:34:56;3.60;;;0.95;;
27333;SDS011;14817;57.104;-2.094;2023-03-13T07:37:23;4.57;;;1.02;;
27333;SDS011;14817;57.104;-2.094;2023-03-13T07:39:49;4.68;;;0.80;;
27333;SDS011;14817;57.104;-2.094;2023-03-13T07:42:16;2.53;;;0.98;;
27333;SDS011;14817;57.104;-2.094;2023-03-13T07:44:44;1.27;;;0.85;;
27333;SDS011;14817;57.104;-2.094;2023-03-13T07:47:11;3.50;;;0.93;;
27333;SDS011;14817;57.104;-2.094;2023-03-13T07:49:39;5.50;;;0.90;;
27333;SDS011;14817;57.104;-2.094;2023-03-13T07:52:09;1.75;;;1.05;;
27333;SDS011;14817;57.104;-2.094;2023-03-13T07:54:35;6.07;;;1.95;;
27333;SDS011;14817;57.104;-2.094;2023-03-13T07:57:02;1.85;;;1.13;;
27333;SDS011;14817;57.104;-2.094;2023-03-13T07:59:29;4.75;;;1.40;;
27333;SDS011;14817;57.104;-2.094;2023-03-13T08:01:56;3.60;;;0.98;;
27333;SDS011;14817;57.104;-2.094;2023-03-13T08:04:23;4.88;;;1.60;;
27333;SDS011;14817;57.104;-2.094;2023-03-13T08:06:49;3.10;;;0.95;;
27333;SDS011;14817;57.104;-2.094;2023-03-13T08:09:17;2.35;;;0.90;;
27333;SDS011;14817;57.104;-2.094;2023-03-13T08:11:44;2.05;;;1.08;;
27333;SDS011;14817;57.104;-2.094;2023-03-13T08:14:11;1.90;;;1.10;;
27333;SDS011;14817;57.104;-2.094;2023-03-13T08:16:38;1.13;;;0.60;;
27333;SDS011;14817;57.104;-2.094;2023-03-13T08:19:05;1.88;;;0.90;;
27333;SDS011;14817;57.104;-2.094;2023-03-13T08:21:35;1.58;;;0.60;;
27333;SDS011;14817;57.104;-2.094;2023-03-13T08:24:03;3.30;;;0.80;;
27333;SDS011;14817;57.104;-2.094;2023-03-13T08:26:33;2.65;;;0.90;;
27333;SDS011;14817;57.104;-2.094;2023-03-13T08:29:03;3.53;;;1.10;;
27333;SDS011;14817;57.104;-2.094;2023-03-13T08:31:35;3.13;;;0.70;;
27333;SDS011;14817;57.104;-2.094;2023-03-13T08:34:22;2.65;;;0.60;;
27333;SDS011;14817;57.104;-2.094;2023-03-13T08:36:49;2.25;;;0.70;;
27333;SDS011;14817;57.104;-2.094;2023-03-13T08:39:19;5.00;;;1.00;;
27333;SDS011;14817;57.104;-2.094;2023-03-13T08:41:46;2.33;;;0.70;;
27333;SDS011;14817;57.104;-2.094;2023-03-13T08:44:13;3.40;;;0.85;;
27333;SDS011;14817;57.104;-2.094;2023-03-13T08:46:42;4.47;;;0.60;;
27333;SDS011;14817;57.104;-2.094;2023-03-13T08:49:09;6.43;;;0.65;;
27333;SDS011;14817;57.104;-2.094;2023-03-13T08:51:37;6.53;;;0.63;;
27333;SDS011;14817;57.104;-2.094;2023-03-13T08:54:04;2.40;;;0.50;;
27333;SDS011;14817;57.104;-2.094;2023-03-13T08:56:31;5.13;;;0.60;;
27333;SDS011;14817;57.104;-2.094;2023-03-13T08:59:00;5.15;;;0.68;;
27333;SDS011;14817;57.104;-2.094;2023-03-13T09:01:29;3.22;;;0.40;;
27333;SDS011;14817;57.104;-2.094;2023-03-13T09:03:57;3.25;;;1.15;;
27333;SDS011;14817;57.104;-2.094;2023-03-13T09:06:29;6.20;;;0.70;;
27333;SDS011;14817;57.104;-2.094;2023-03-13T09:08:56;2.13;;;0.90;;
27333;SDS011;14817;57.104;-2.094;2023-03-13T09:11:23;4.72;;;0.63;;
27333;SDS011;14817;57.104;-2.094;2023-03-13T09:13:51;3.45;;;1.13;;
27333;SDS011;14817;57.104;-2.094;2023-03-13T09:16:19;5.95;;;0.80;;
27333;SDS011;14817;57.104;-2.094;2023-03-13T09:18:48;4.68;;;0.60;;
27333;SDS011;14817;57.104;-2.094;2023-03-13T09:21:19;4.00;;;0.70;;
27333;SDS011;14817;57.104;-2.094;2023-03-13T09:23:49;5.38;;;0.80;;
27333;SDS011;14817;57.104;-2.094;2023-03-13T09:26:16;5.53;;;0.60;;
27333;SDS011;14817;57.104;-2.094;2023-03-13T09:28:47;5.32;;;1.27;;
27333;SDS011;14817;57.104;-2.094;2023-03-13T09:31:15;5.53;;;0.93;;
27333;SDS011;14817;57.104;-2.094;2023-03-13T09:33:46;3.85;;;0.57;;
27333;SDS011;14817;57.104;-2.094;2023-03-13T09:36:14;6.03;;;0.90;;
27333;SDS011;14817;57.104;-2.094;2023-03-13T09:38:45;4.35;;;0.55;;
27333;SDS011;14817;57.104;-2.094;2023-03-13T09:43:46;7.82;;;1.02;;
27333;SDS011;14817;57.104;-2.094;2023-03-13T09:49:02;7.13;;;0.85;;
27333;SDS011;14817;57.104;-2.094;2023-03-13T09:51:38;6.35;;;0.90;;
27333;SDS011;14817;57.104;-2.094;2023-03-13T09:57:06;1.20;;;0.40;;
27333;SDS011;14817;57.104;-2.094;2023-03-13T10:02:43;2.83;;;0.40;;
27333;SDS011;14817;57.104;-2.094;2023-03-13T10:07:42;7.32;;;0.90;;
27333;SDS011;14817;57.104;-2.094;2023-03-13T10:10:16;4.57;;;0.63;;
27333;SDS011;14817;57.104;-2.094;2023-03-13T10:12:45;6.80;;;0.70;;
27333;SDS011;14817;57.104;-2.094;2023-03-13T10:15:33;4.50;;;0.35;;
27333;SDS011;14817;57.104;-2.094;2023-03-13T10:18:13;4.40;;;0.98;;
27333;SDS011;14817;57.104;-2.094;2023-03-13T10:20:48;3.65;;;0.60;;
27333;SDS011;14817;57.104;-2.094;2023-03-13T10:23:18;2.83;;;0.73;;
27333;SDS011;14817;57.104;-2.094;2023-03-13T10:25:45;10.00;;;0.70;;
27333;SDS011;14817;57.104;-2.094;2023-03-13T10:28:13;2.65;;;0.50;;
27333;SDS011;14817;57.104;-2.094;2023-03-13T10:30:47;3.58;;;0.30;;
27333;SDS011;14817;57.104;-2.094;2023-03-13T10:33:29;2.08;;;0.40;;
27333;SDS011;14817;57.104;-2.094;2023-03-13T10:35:58;4.28;;;0.77;;
27333;SDS011;14817;57.104;-2.094;2023-03-13T10:38:28;3.25;;;0.30;;
27333;SDS011;14817;57.104;-2.094;2023-03-13T10:43:28;1.90;;;0.30;;
27333;SDS011;14817;57.104;-2.094;2023-03-13T10:45:55;2.95;;;0.40;;
27333;SDS011;14817;57.104;-2.094;2023-03-13T10:48:23;0.90;;;0.30;;
27333;SDS011;14817;57.104;-2.094;2023-03-13T10:50:53;3.25;;;0.52;;
27333;SDS011;14817;57.104;-2.094;2023-03-13T10:56:15;1.92;;;0.40;;
27333;SDS011;14817;57.104;-2.094;2023-03-13T10:58:45;4.35;;;0.45;;
27333;SDS011;14817;57.104;-2.094;2023-03-13T11:01:27;3.20;;;0.40;;
27333;SDS011;14817;57.104;-2.094;2023-03-13T11:03:58;4.90;;;0.40;;
27333;SDS011;14817;57.104;-2.094;2023-03-13T11:06:51;3.08;;;0.45;;
27333;SDS011;14817;57.104;-2.094;2023-03-13T11:09:26;1.50;;;0.30;;
27333;SDS011;14817;57.104;-2.094;2023-03-13T11:11:55;1.80;;;0.20;;
27333;SDS011;14817;57.104;-2.094;2023-03-13T11:14:29;3.53;;;1.05;;
27333;SDS011;14817;57.104;-2.094;2023-03-13T11:24:50;1.55;;;0.50;;
27333;SDS011;14817;57.104;-2.094;2023-03-13T11:27:59;1.00;;;0.30;;
27333;SDS011;14817;57.104;-2.094;2023-03-13T11:31:02;3.67;;;0.50;;
27333;SDS011;14817;57.104;-2.094;2023-03-13T11:33:46;2.55;;;0.60;;
27333;SDS011;14817;57.104;-2.094;2023-03-13T11:36:22;2.70;;;0.82;;
27333;SDS011;14817;57.104;-2.094;2023-03-13T11:39:00;3.40;;;0.60;;
27333;SDS011;14817;57.104;-2.094;2023-03-13T11:45:20;2.15;;;0.77;;
27333;SDS011;14817;57.104;-2.094;2023-03-13T11:56:16;3.40;;;0.77;;
27333;SDS011;14817;57.104;-2.094;2023-03-13T11:58:57;4.90;;;0.73;;
27333;SDS011;14817;57.104;-2.094;2023-03-13T12:01:31;4.88;;;1.27;;
27333;SDS011;14817;57.104;-2.094;2023-03-13T12:09:36;4.88;;;0.95;;
27333;SDS011;14817;57.104;-2.094;2023-03-13T12:17:48;6.63;;;1.73;;
27333;SDS011;14817;57.104;-2.094;2023-03-13T12:20:32;8.85;;;0.95;;
27333;SDS011;14817;57.104;-2.094;2023-03-13T12:23:13;4.55;;;0.82;;
27333;SDS011;14817;57.104;-2.094;2023-03-13T12:25:51;6.45;;;1.13;;
27333;SDS011;14817;57.104;-2.094;2023-03-13T12:28:21;4.50;;;1.13;;
27333;SDS011;14817;57.104;-2.094;2023-03-13T12:30:58;8.48;;;1.10;;
27333;SDS011;14817;57.104;-2.094;2023-03-13T12:33:47;7.80;;;1.75;;
27333;SDS011;14817;57.104;-2.094;2023-03-13T12:39:34;12.13;;;1.53;;
27333;SDS011;14817;57.104;-2.094;2023-03-13T12:45:00;13.98;;;1.40;;
27333;SDS011;14817;57.104;-2.094;2023-03-13T12:47:36;7.55;;;1.30;;
27333;SDS011;14817;57.104;-2.094;2023-03-13T12:53:04;8.93;;;1.52;;
27333;SDS011;14817;57.104;-2.094;2023-03-13T12:55:45;9.68;;;1.40;;
27333;SDS011;14817;57.104;-2.094;2023-03-13T13:00:54;8.60;;;1.52;;
27333;SDS011;14817;57.104;-2.094;2023-03-13T13:03:34;6.30;;;1.38;;
27333;SDS011;14817;57.104;-2.094;2023-03-13T13:06:15;6.35;;;0.85;;
27333;SDS011;14817;57.104;-2.094;2023-03-13T13:09:01;8.27;;;1.30;;
27333;SDS011;14817;57.104;-2.094;2023-03-13T13:16:40;8.40;;;1.15;;
27333;SDS011;14817;57.104;-2.094;2023-03-13T13:24:57;7.13;;;2.25;;
27333;SDS011;14817;57.104;-2.094;2023-03-13T13:30:00;14.27;;;2.97;;
27333;SDS011;14817;57.104;-2.094;2023-03-13T13:32:55;11.50;;;2.17;;
27333;SDS011;14817;57.104;-2.094;2023-03-13T13:35:42;14.95;;;2.10;;
27333;SDS011;14817;57.104;-2.094;2023-03-13T13:43:33;9.95;;;1.98;;
27333;SDS011;14817;57.104;-2.094;2023-03-13T13:46:45;9.27;;;1.58;;
27333;SDS011;14817;57.104;-2.094;2023-03-13T13:51:37;10.45;;;2.40;;
27333;SDS011;14817;57.104;-2.094;2023-03-13T13:56:47;10.38;;;1.52;;
27333;SDS011;14817;57.104;-2.094;2023-03-13T14:02:00;8.57;;;2.03;;
27333;SDS011;14817;57.104;-2.094;2023-03-13T14:04:46;14.05;;;2.47;;
27333;SDS011;14817;57.104;-2.094;2023-03-13T14:07:17;11.05;;;2.38;;
27333;SDS011;14817;57.104;-2.094;2023-03-13T14:10:06;17.95;;;3.50;;
27333;SDS011;14817;57.104;-2.094;2023-03-13T14:12:45;11.70;;;1.95;;
27333;SDS011;14817;57.104;-2.094;2023-03-13T14:15:23;12.57;;;2.55;;
27333;SDS011;14817;57.104;-2.094;2023-03-13T14:17:55;13.20;;;2.47;;
27333;SDS011;14817;57.104;-2.094;2023-03-13T14:20:35;14.50;;;3.47;;
27333;SDS011;14817;57.104;-2.094;2023-03-13T14:23:04;18.80;;;2.97;;
27333;SDS011;14817;57.104;-2.094;2023-03-13T14:25:42;23.80;;;3.85;;
27333;SDS011;14817;57.104;-2.094;2023-03-13T14:28:18;15.68;;;3.28;;
27333;SDS011;14817;57.104;-2.094;2023-03-13T14:30:45;13.90;;;2.20;;
27333;SDS011;14817;57.104;-2.094;2023-03-13T14:33:13;18.73;;;3.28;;
27333;SDS011;14817;57.104;-2.094;2023-03-13T14:35:40;22.15;;;3.38;;
27333;SDS011;14817;57.104;-2.094;2023-03-13T14:38:18;18.70;;;4.13;;
27333;SDS011;14817;57.104;-2.094;2023-03-13T14:40:53;18.30;;;3.38;;
27333;SDS011;14817;57.104;-2.094;2023-03-13T14:43:31;22.80;;;3.63;;
27333;SDS011;14817;57.104;-2.094;2023-03-13T14:46:11;20.30;;;4.40;;
27333;SDS011;14817;57.104;-2.094;2023-03-13T14:48:41;20.20;;;3.58;;
27333;SDS011;14817;57.104;-2.094;2023-03-13T14:51:09;22.02;;;4.13;;
27333;SDS011;14817;57.104;-2.094;2023-03-13T14:54:02;26.77;;;4.47;;
27333;SDS011;14817;57.104;-2.094;2023-03-13T14:56:34;19.40;;;3.88;;
27333;SDS011;14817;57.104;-2.094;2023-03-13T14:59:16;20.85;;;3.38;;
27333;SDS011;14817;57.104;-2.094;2023-03-13T15:01:57;20.58;;;2.92;;
27333;SDS011;14817;57.104;-2.094;2023-03-13T15:07:19;20.20;;;3.35;;
27333;SDS011;14817;57.104;-2.094;2023-03-13T15:09:46;25.42;;;4.20;;
27333;SDS011;14817;57.104;-2.094;2023-03-13T15:12:16;15.10;;;2.78;;
27333;SDS011;14817;57.104;-2.094;2023-03-13T15:14:46;11.23;;;2.75;;
27333;SDS011;14817;57.104;-2.094;2023-03-13T15:17:19;19.00;;;3.47;;
27333;SDS011;14817;57.104;-2.094;2023-03-13T15:19:54;14.98;;;2.67;;
27333;SDS011;14817;57.104;-2.094;2023-03-13T15:24:52;12.93;;;2.05;;
27333;SDS011;14817;57.104;-2.094;2023-03-13T15:27:31;18.13;;;3.70;;
27333;SDS011;14817;57.104;-2.094;2023-03-13T15:29:58;17.42;;;4.10;;
27333;SDS011;14817;57.104;-2.094;2023-03-13T15:32:25;14.40;;;2.95;;
27333;SDS011;14817;57.104;-2.094;2023-03-13T15:34:55;15.23;;;3.42;;
27333;SDS011;14817;57.104;-2.094;2023-03-13T15:37:28;19.20;;;2.60;;
27333;SDS011;14817;57.104;-2.094;2023-03-13T15:39:56;14.50;;;2.80;;
27333;SDS011;14817;57.104;-2.094;2023-03-13T15:42:23;17.55;;;4.75;;
27333;SDS011;14817;57.104;-2.094;2023-03-13T15:44:50;18.23;;;4.68;;
27333;SDS011;14817;57.104;-2.094;2023-03-13T15:47:19;22.25;;;4.18;;
27333;SDS011;14817;57.104;-2.094;2023-03-13T15:49:47;21.20;;;3.95;;
27333;SDS011;14817;57.104;-2.094;2023-03-13T15:52:18;26.30;;;5.43;;
27333;SDS011;14817;57.104;-2.094;2023-03-13T15:54:48;25.73;;;4.38;;
27333;SDS011;14817;57.104;-2.094;2023-03-13T15:57:25;22.25;;;4.07;;
27333;SDS011;14817;57.104;-2.094;2023-03-13T15:59:52;22.60;;;4.57;;
27333;SDS011;14817;57.104;-2.094;2023-03-13T16:02:20;24.50;;;4.88;;
27333;SDS011;14817;57.104;-2.094;2023-03-13T16:04:49;35.80;;;4.75;;
27333;SDS011;14817;57.104;-2.094;2023-03-13T16:07:20;25.30;;;4.40;;
27333;SDS011;14817;57.104;-2.094;2023-03-13T16:09:47;30.27;;;3.78;;
27333;SDS011;14817;57.104;-2.094;2023-03-13T16:12:15;20.35;;;3.60;;
27333;SDS011;14817;57.104;-2.094;2023-03-13T16:14:42;23.90;;;3.53;;
27333;SDS011;14817;57.104;-2.094;2023-03-13T16:17:13;16.45;;;2.45;;
27333;SDS011;14817;57.104;-2.094;2023-03-13T16:19:42;9.27;;;1.58;;
27333;SDS011;14817;57.104;-2.094;2023-03-13T16:22:09;15.00;;;2.55;;
27333;SDS011;14817;57.104;-2.094;2023-03-13T16:24:37;15.25;;;3.58;;
27333;SDS011;14817;57.104;-2.094;2023-03-13T16:27:09;20.95;;;3.80;;
27333;SDS011;14817;57.104;-2.094;2023-03-13T16:29:38;21.23;;;3.47;;
27333;SDS011;14817;57.104;-2.094;2023-03-13T16:32:05;21.13;;;3.20;;
27333;SDS011;14817;57.104;-2.094;2023-03-13T16:34:33;23.05;;;3.40;;
27333;SDS011;14817;57.104;-2.094;2023-03-13T16:37:00;24.23;;;4.75;;
27333;SDS011;14817;57.104;-2.094;2023-03-13T16:39:27;17.45;;;3.50;;
27333;SDS011;14817;57.104;-2.094;2023-03-13T16:41:53;18.60;;;3.95;;
27333;SDS011;14817;57.104;-2.094;2023-03-13T16:44:20;16.30;;;3.42;;